Latest Weather Observations for Point Perpendicular

IDN60801

Issued at 9:05 pm EST Thursday 28 August 2014 (issued every 30 minutes, with the page automatically refreshed every 10 minutes)

About weather observations | Map of weather stations | Latest weather observations for NSW | Other Formats
Station Details ID: 068151 Name: POINT PERPENDICULAR AWS Lat: -35.09 Lon: 150.80 Height: 85.0 m
Data from the previous 72 hours. | See also: Recent months at Point Perpendicular
Date/Time
EST
Temp
°C
App
Temp
°C
Dew
Point
Rel
Hum
%
Delta-T
°C
Wind Press
QNH
hPa
Press
MSL
hPa
Rain
since 9 am
mm
Dir
 
Spd
km/h
Gust
km/h
Spd
kts
Gust
kts
28/09:00pm 14.2 10.8 7.5 64 3.3 SSE 15 22 8 12 1028.5 1028.5 0.0
28/08:30pm 14.4 11.4 7.5 63 3.4 S 13 22 7 12 1028.4 - 0.0
28/08:00pm 14.4 11.4 7.5 63 3.4 S 13 22 7 12 1028.3 1028.3 0.0
28/07:30pm 14.4 11.3 7.2 62 3.5 S 13 22 7 12 1028.3 - 0.0
28/07:00pm 14.4 11.1 6.5 59 3.8 S 13 22 7 12 1028.0 1028.0 0.0
28/06:30pm 14.4 10.8 6.7 60 3.7 SSE 15 22 8 12 1028.0 - 0.0
28/06:00pm 14.6 11.6 7.6 63 3.5 SSE 13 24 7 13 1027.9 1027.9 0.0
28/05:30pm 14.8 11.6 8.3 65 3.3 S 15 22 8 12 1027.8 - 0.0
28/05:00pm 15.0 12.1 8.3 64 3.4 SSE 13 20 7 11 1027.6 1027.6 0.0
28/04:30pm 15.4 12.0 7.7 60 3.9 SSE 15 24 8 13 1027.4 - 0.0
28/04:00pm 15.5 11.6 7.3 58 4.0 SSE 17 28 9 15 1027.2 1027.2 0.0
28/03:30pm 15.9 12.8 7.4 57 4.2 SE 13 24 7 13 1027.1 - 0.0
28/03:00pm 16.4 12.4 8.1 58 4.2 SSE 19 28 10 15 1027.0 1027.0 0.0
28/02:30pm 16.1 12.1 8.1 59 4.1 SSE 19 26 10 14 1026.9 - 0.0
28/02:00pm 14.8 11.4 11.4 80 1.8 S 20 33 11 18 1026.9 1026.9 0.0
28/01:30pm 14.5 11.9 12.0 85 1.4 S 17 30 9 16 1026.9 - 0.0
28/01:00pm 14.3 12.3 11.6 84 1.4 S 13 22 7 12 1027.3 1027.3 0.0
28/12:30pm 14.1 11.4 11.6 85 1.3 SSW 17 26 9 14 1027.6 - 0.0
28/12:00pm 14.3 11.2 11.5 83 1.5 SSW 19 26 10 14 1027.8 1027.8 0.0
28/11:30am 14.4 11.8 10.8 79 1.9 SSE 15 22 8 12 1028.1 - 0.0
28/11:00am 16.4 14.3 9.8 65 3.4 SSE 11 20 6 11 1028.4 1028.4 0.0
28/10:30am 15.3 12.9 9.9 70 2.8 SSE 13 22 7 12 1028.6 - 0.0
28/10:00am 16.0 12.2 11.2 73 2.6 SSE 22 32 12 17 1028.6 1028.6 0.0
28/09:30am 15.3 12.3 10.5 73 2.5 SSE 17 26 9 14 1028.5 - 0.0
28/09:00am 15.7 13.1 10.7 72 2.6 SSE 15 24 8 13 1028.4 1028.4 1.6
28/08:30am 15.9 13.3 10.7 71 2.8 SSE 15 22 8 12 1028.2 - 1.6
28/08:00am 15.1 12.7 9.9 71 2.7 SSE 13 20 7 11 1028.1 1028.1 1.6
28/07:30am 14.7 13.8 10.5 76 2.2 W 6 9 3 5 1027.8 - 1.6
28/07:00am 14.3 13.4 10.5 78 2.0 N 6 9 3 5 1027.5 1027.5 1.6
28/06:30am 14.4 11.5 11.0 80 1.8 SSE 17 30 9 16 1026.9 - 1.6
28/06:00am 14.4 10.5 9.4 72 2.6 S 20 32 11 17 1026.6 1026.6 1.6
28/05:30am 14.2 10.7 11.0 81 1.7 S 20 28 11 15 1026.6 - 1.6
28/05:00am 14.0 10.3 10.0 77 2.1 SSE 20 32 11 17 1026.3 1026.3 1.6
28/04:30am 14.0 10.5 10.8 81 1.7 S 20 30 11 16 1026.1 - 1.6
28/04:00am 14.1 10.5 9.9 76 2.2 S 19 30 10 16 1026.1 1026.1 1.6
28/03:30am 13.3 11.2 11.0 86 1.2 S 13 20 7 11 1026.4 - 1.6
28/03:00am 13.8 10.6 11.1 84 1.4 SSE 19 32 10 17 1026.4 1026.4 1.4
28/02:30am 14.3 11.4 10.9 80 1.8 SSE 17 28 9 15 1026.2 - 1.2
28/02:00am 13.8 10.4 10.4 80 1.8 S 19 32 10 17 1026.5 1026.5 1.2
28/01:30am 13.5 10.8 10.3 81 1.7 S 15 24 8 13 1026.5 - 1.2
28/01:00am 14.0 10.4 10.6 80 1.8 S 20 32 11 17 1026.8 1026.8 1.2
28/12:30am 13.2 8.6 11.1 87 1.1 SSE 26 41 14 22 1027.0 - 1.2
28/12:00am 14.2 10.0 9.8 75 2.3 S 22 33 12 18 1026.9 1026.9 0.8
 
Date/Time
EST
Temp
°C
App
Temp
°C
Dew
Point
Rel
Hum
%
Delta-T
°C
Wind Press
QNH
hPa
Press
MSL
hPa
Rain
since 9 am
mm
Dir
 
Spd
km/h
Gust
km/h
Spd
kts
Gust
kts
27/11:30pm 14.1 9.8 9.3 73 2.5 S 22 35 12 19 1027.0 - 0.8
27/11:00pm 14.5 10.2 9.3 71 2.7 S 22 33 12 18 1027.1 1027.1 0.8
27/10:30pm 14.2 10.1 8.8 70 2.7 SSE 20 39 11 21 1027.3 - 0.8
27/10:00pm 14.5 10.1 9.1 70 2.7 SSE 22 32 12 17 1027.0 1027.0 0.8
27/09:30pm 14.5 10.7 8.9 69 2.9 SSE 19 30 10 16 1027.1 - 0.8
27/09:00pm 14.5 10.1 8.9 69 2.8 SSE 22 35 12 19 1027.1 1027.1 0.8
27/08:30pm 14.4 10.5 9.6 73 2.5 SSE 20 30 11 16 1027.3 - 0.8
27/08:00pm 14.5 10.2 9.3 71 2.7 SSE 22 35 12 19 1027.4 1027.4 0.8
27/07:30pm 14.4 10.4 9.2 71 2.7 SSE 20 30 11 16 1027.2 - 0.8
27/07:00pm 14.3 10.0 8.0 66 3.1 SSE 20 32 11 17 1027.1 1027.1 0.8
27/06:30pm 14.3 10.2 8.7 69 2.8 SSE 20 33 11 18 1027.0 - 0.8
27/06:00pm 14.5 10.9 8.5 67 3.0 S 17 26 9 14 1026.8 1026.8 0.8
27/05:30pm 14.3 9.4 8.3 67 3.0 S 24 33 13 18 1026.4 - 0.8
27/05:00pm 14.1 10.3 9.1 72 2.5 S 19 30 10 16 1026.6 1026.6 0.8
27/04:30pm 15.2 10.8 7.2 59 4.0 S 20 32 11 17 1026.5 - 0.2
27/04:00pm 15.5 11.0 6.8 56 4.3 S 20 32 11 17 1026.0 1026.0 0.2
27/03:30pm 15.6 11.4 8.1 61 3.8 SSE 20 33 11 18 1026.0 - 0.2
27/03:00pm 15.0 10.1 8.3 64 3.4 SSE 24 41 13 22 1025.8 1025.8 0.2
27/02:30pm 15.2 10.7 8.7 65 3.3 SSE 22 33 12 18 1025.9 - 0.2
27/02:00pm 14.9 11.1 9.9 72 2.6 S 20 30 11 16 1026.2 1026.2 0.2
27/01:30pm 13.9 10.6 9.7 76 2.2 S 17 24 9 13 1026.5 - 0.2
27/01:00pm 13.9 10.6 9.7 76 2.2 S 17 26 9 14 1026.3 1026.3 0.2
27/12:30pm 14.4 10.4 9.0 70 2.8 S 20 32 11 17 1026.4 - 0.2
27/12:00pm 15.3 11.3 10.3 72 2.6 SSE 22 35 12 19 1026.9 1026.9 0.0
27/11:30am 16.2 12.4 9.8 66 3.4 SSE 20 32 11 17 1027.2 - 0.0
27/11:00am 16.2 12.4 9.8 66 3.3 SSE 20 35 11 19 1027.3 1027.3 0.0
27/10:30am 15.4 11.4 9.1 66 3.2 SSE 20 35 11 19 1027.6 - 0.0
27/10:00am 16.3 12.7 10.4 68 3.1 SSE 20 32 11 17 1027.6 1027.6 0.0
27/09:30am 15.7 11.9 9.8 68 3.1 SSE 20 32 11 17 1027.3 - 0.0
27/09:00am 15.3 11.4 9.4 68 3.0 SSE 20 30 11 16 1027.3 1027.3 20.2
27/08:30am 15.0 11.0 8.3 64 3.4 SSE 19 30 10 16 1027.3 - 20.2
27/08:00am 14.7 10.5 7.3 61 3.6 SSE 19 32 10 17 1027.1 1027.1 20.2
27/07:30am 14.4 9.9 7.0 61 3.6 SSE 20 32 11 17 1026.7 - 20.2
27/07:00am 13.9 9.4 7.0 63 3.3 SSE 20 30 11 16 1026.4 1026.4 20.2
27/06:30am 13.8 8.9 7.1 64 3.3 SSE 22 32 12 17 1026.4 - 20.2
27/06:00am 13.7 9.0 7.9 68 2.9 SSE 22 32 12 17 1026.2 1026.2 20.2
27/05:30am 13.8 9.4 7.3 65 3.2 SSE 20 32 11 17 1026.1 - 20.2
27/05:00am 13.8 9.2 8.0 68 2.9 SSE 22 35 12 19 1026.1 1026.1 20.2
27/04:30am 13.9 9.4 8.7 71 2.6 SSE 22 39 12 21 1025.9 - 20.2
27/04:00am 13.8 9.6 8.2 69 2.8 SSE 20 30 11 16 1026.0 1026.0 20.2
27/03:30am 13.8 9.2 8.0 68 2.9 SE 22 33 12 18 1026.0 - 20.2
27/03:00am 14.0 9.6 8.8 71 2.6 SE 22 35 12 19 1025.9 1025.9 20.2
27/02:30am 14.3 10.1 8.3 67 3.0 SE 20 32 11 17 1026.0 - 20.2
27/02:00am 14.4 10.6 9.0 70 2.7 SE 19 32 10 17 1026.2 1026.2 20.2
27/01:30am 14.5 11.2 9.5 72 2.6 SE 17 28 9 15 1026.3 - 20.2
27/01:00am 14.6 11.3 9.4 71 2.7 SE 17 33 9 18 1026.5 1026.5 20.2
27/12:30am 14.6 10.9 9.4 71 2.7 SE 19 39 10 21 1026.3 - 20.2
27/12:00am 14.8 11.2 9.8 72 2.6 SE 19 39 10 21 1026.3 1026.3 20.2
 
Date/Time
EST
Temp
°C
App
Temp
°C
Dew
Point
Rel
Hum
%
Delta-T
°C
Wind Press
QNH
hPa
Press
MSL
hPa
Rain
since 9 am
mm
Dir
 
Spd
km/h
Gust
km/h
Spd
kts
Gust
kts
26/11:30pm 14.8 11.7 10.2 74 2.4 E 17 32 9 17 1026.4 - 20.2
26/11:00pm 14.9 11.0 10.7 76 2.2 SE 22 39 12 21 1026.4 1026.4 20.2
26/10:30pm 14.9 10.5 10.5 75 2.3 SE 24 35 13 19 1026.3 - 20.2
26/10:00pm 15.2 11.3 10.8 75 2.3 SE 22 39 12 21 1026.5 1026.5 20.2
26/09:30pm 15.3 11.3 10.5 73 2.5 ESE 22 41 12 22 1026.5 - 20.2
26/09:00pm 15.4 12.5 11.0 75 2.3 ESE 17 30 9 16 1026.5 1026.5 20.2
26/08:30pm 15.4 11.8 9.7 69 3.0 ESE 19 32 10 17 1026.6 - 20.2
26/08:00pm 15.1 11.6 10.9 76 2.2 ESE 20 33 11 18 1026.4 1026.4 20.2
26/07:30pm 15.5 12.3 10.1 70 2.8 ESE 17 30 9 16 1026.3 - 19.8
26/07:00pm 15.6 12.0 10.4 71 2.7 ESE 20 35 11 19 1025.8 1025.8 19.8
26/06:30pm 15.5 12.1 10.5 72 2.6 ESE 19 32 10 17 1025.6 - 19.8
26/06:00pm 15.5 11.8 10.1 70 2.8 ESE 20 39 11 21 1025.2 1025.2 19.8
26/05:30pm 15.4 11.9 10.8 74 2.4 ESE 20 35 11 19 1025.2 - 19.8
26/05:00pm 15.4 12.0 11.2 76 2.2 ESE 20 32 11 17 1025.1 1025.1 19.8
26/04:30pm 15.0 11.0 11.8 81 1.7 E 24 41 13 22 1024.8 - 19.8
26/04:00pm 14.2 10.5 12.8 91 0.8 E 24 43 13 23 1024.3 1024.3 19.8
26/03:30pm 15.4 12.2 11.4 77 2.2 ESE 19 32 10 17 1024.5 - 17.6
26/03:00pm 15.3 12.2 12.1 81 1.7 ESE 20 35 11 19 1024.5 1024.5 17.6
26/02:30pm 13.1 12.6 12.6 97 0.3 SW 7 15 4 8 1025.1 - 17.6
26/02:00pm 13.4 13.1 12.8 96 0.3 N 6 7 3 4 1025.1 1025.1 17.6
26/01:30pm 13.2 13.6 12.6 96 0.3 ENE 2 6 1 3 1025.4 - 17.6
26/01:00pm 12.8 12.2 12.2 96 0.3 ENE 7 11 4 6 1025.4 1025.4 17.6
26/12:30pm 13.9 9.7 12.5 91 0.8 ENE 26 41 14 22 1025.6 - 13.2
26/12:00pm 14.0 11.2 12.6 91 0.8 ESE 19 33 10 18 1025.5 1025.5 12.2
26/11:30am 13.3 10.2 11.7 90 0.9 E 19 32 10 17 1025.9 - 10.4
26/11:00am 13.5 10.2 11.6 88 1.0 E 20 35 11 19 1026.0 1026.0 5.6
26/10:30am 14.1 9.8 12.1 88 1.1 E 26 39 14 21 1025.9 - 2.0
26/10:17am 14.1 9.5 12.3 89 1.0 E 28 46 15 25 1025.6 - 1.4
26/10:00am 14.0 10.2 12.4 90 0.9 E 24 39 13 21 1025.7 1025.7 1.2
26/09:30am 13.9 9.2 12.1 89 1.0 E 28 46 15 25 1025.7 - 0.6
26/09:00am 14.2 10.4 12.4 89 1.0 E 24 41 13 22 1025.4 1025.4 8.4
26/08:30am 13.6 11.8 12.0 90 0.9 ESE 13 22 7 12 1025.5 - 8.4
26/08:00am 13.4 11.1 11.8 90 0.9 SE 15 24 8 13 1025.2 1025.2 7.8
26/07:30am 13.7 11.6 12.3 91 0.8 SE 15 26 8 14 1024.8 - 7.0
26/07:00am 13.7 11.5 12.1 90 0.9 ESE 15 30 8 16 1024.4 1024.4 6.2
26/06:30am 13.8 11.4 11.3 85 1.3 ESE 15 32 8 17 1024.0 - 5.6
26/06:00am 13.8 11.7 11.3 85 1.3 ESE 13 28 7 15 1023.7 1023.7 5.6
26/05:30am 13.4 10.5 10.9 85 1.3 ESE 17 32 9 17 1023.2 - 5.6
26/05:00am 13.5 10.1 11.4 87 1.1 ESE 20 41 11 22 1023.0 1023.0 5.2
26/04:30am 13.7 10.2 10.9 83 1.5 ESE 20 33 11 18 1023.1 - 5.0
26/04:00am 13.7 10.1 10.5 81 1.7 ESE 20 39 11 21 1023.1 1023.1 5.0
26/03:30am 13.5 9.0 11.4 87 1.1 E 26 41 14 22 1022.9 - 4.8
26/03:03am 13.4 7.9 10.4 82 1.6 E 30 48 16 26 1023.0 - 4.2
26/03:00am 13.3 7.7 10.3 82 1.6 E 30 46 16 25 1022.9 1022.9 4.0
26/02:30am 13.8 8.0 10.8 82 1.6 E 32 50 17 27 1023.2 - 3.8
26/02:05am 14.1 8.1 10.1 77 2.1 E 32 50 17 27 1023.1 - 3.8
26/02:00am 14.0 7.3 9.8 76 2.2 E 35 50 19 27 1023.1 1023.1 3.8
26/01:48am 14.1 8.7 9.5 74 2.4 E 28 46 15 25 1023.2 - 3.8
26/01:30am 14.4 10.1 10.8 79 1.9 E 24 43 13 23 1023.3 - 3.8
26/01:07am 14.3 9.0 9.9 75 2.3 E 28 46 15 25 1023.3 - 3.8
26/01:00am 14.4 10.5 10.8 79 1.9 E 22 39 12 21 1023.4 1023.4 3.8
26/12:30am 14.7 11.5 11.8 83 1.6 E 20 33 11 18 1023.7 - 3.8
26/12:00am 14.8 11.3 10.8 77 2.1 E 20 32 11 17 1023.7 1023.7 3.8
 
Date/Time
EST
Temp
°C
App
Temp
°C
Dew
Point
Rel
Hum
%
Delta-T
°C
Wind Press
QNH
hPa
Press
MSL
hPa
Rain
since 9 am
mm
Dir
 
Spd
km/h
Gust
km/h
Spd
kts
Gust
kts
25/11:30pm 15.0 12.0 11.8 81 1.7 E 19 28 10 15 1024.0 - 3.8
25/11:00pm 14.9 12.5 11.5 80 1.8 E 15 26 8 14 1024.1 1024.1 3.8
25/10:30pm 14.9 13.0 11.9 82 1.6 E 13 22 7 12 1024.2 - 3.8
25/10:00pm 14.7 13.5 11.7 82 1.6 E 9 15 5 8 1024.4 1024.4 3.8
25/09:30pm 14.9 13.5 12.2 84 1.5 E 11 15 6 8 1024.4 - 3.8

Other Formats:

Comma delimited format used in spreadsheet applications
http://www.bom.gov.au/fwo/IDN60801/IDN60801.95940.axf

JavaScript Object Notation format (JSON) in row-major order
http://www.bom.gov.au/fwo/IDN60801/IDN60801.95940.json